map of OGB home
OGB - Airport
Location
City:  Orangeburg, South Carolina, United States
Name:Orangeburg Municipal Airport
ICAO:KOGB
IATA:OGB
FAA LID:OGB

Details
Type:Airport (Airfield)
Use:Public/Civil
Latitude:3327'25"N (33.456918)
Longitude:8051'34"W (-80.859406)
Datum:WGS 1984
Elevation:195 ft (59 m)
Variation:7.46W (WMM2015 magnetic declination)
-0.07 annual change
Runways:2
Longest:5399 × 100 ft (1646 × 30.5 m), paved

Time
Time Zone:UTC-5 (DST-4)
Local Time:

Weather
METAR:KOGB 142353Z AUTO 21004KT 10SM CLR 08/03 A2996 RMK AO2 SLP144 T00780028 10150 20078 51019
TAF:KOGB 142332Z 1500/1524 VRB03KT P6SM BKN250
FM151600 26010KT P6SM BKN200

Related Locations
Nearby:
Farthest:MQZ: 11525 mi / 18548 km
Margaret River [Margaret River Airport], WA, AU

Find:

   beyond  
but within

Other Information
Maps:
NOTAMs:
Links:
Sources:

  
flag of United States
flag of South Carolina
  

Sectional Chart

Flight Planning
at skyvector.com

Satellite Image

Google Maps Satellite view

 

Copyright © 2004-2017 Karl L. Swartz. All rights reserved.
The Great Circle Mapper name and logo are trademarks of the Great Circle Mapper.
All other trademarks mentioned herein belong to their respective owners.
Please see credits for attibutions and further copyright information.

  Follow gcmap on Facebook Follow gcmap on Twitter Follow gcmap on Google+ GCmap on LinkedIn

hCard Microformat

Geo Microformat